This is the latest recevied weather packets stored in our database for station/object KD2FKI. If no packets are shown the sender has not sent any weather packets the latest 10 day(s).
| Time | Temp. | Humidity | Pressure | Rain* | Wind** | Luminosity | Snow |
|---|---|---|---|---|---|---|---|
| 1788127523 | 30.56° C | 60% | - | 0 mm | - | - | - |
| 1788126921 | 31.67° C | 58% | - | 0 mm | - | - | - |
| 1788126337 | 31.67° C | 57% | - | 0 mm | - | - | - |
| 1788125736 | 31.67° C | 57% | - | 0 mm | - | - | - |
| 1788125132 | 31.67° C | 56% | - | 0 mm | - | - | - |
| 1788124530 | 31.67° C | 57% | - | 0 mm | - | - | - |
| 1788123928 | 32.22° C | 56% | - | 0 mm | - | - | - |
| 1788123326 | 32.22° C | 56% | - | 0 mm | - | - | - |
| 1788122724 | 32.22° C | 56% | - | 0 mm | - | - | - |
| 1788122123 | 32.22° C | 55% | - | 0 mm | - | - | - |
| 1788121522 | 32.22° C | 55% | - | 0 mm | - | - | - |
| 1788120939 | 33.33° C | 53% | - | 0 mm | - | - | - |
| 1788120335 | 33.33° C | 53% | - | 0 mm | - | - | - |
| 1788119734 | 33.89° C | 51% | - | 0 mm | - | - | - |
| 1788119128 | 34.44° C | 51% | - | 0 mm | - | - | - |
| 1788118525 | 33.89° C | 52% | - | 0 mm | - | - | - |
| 1788117923 | 34.44° C | 51% | - | 0 mm | - | - | - |
| 1788117321 | 35° C | 49% | - | 0 mm | - | - | - |
| 1788116737 | 34.44° C | 50% | - | 0 mm | - | - | - |
| 1788116134 | 35° C | 50% | - | 0 mm | - | - | - |
| 1788115532 | 33.89° C | 51% | - | 0 mm | - | - | - |
| 1788114930 | 34.44° C | 50% | - | 0 mm | - | - | - |
| 1788114328 | 35° C | 51% | - | 0 mm | - | - | - |
| 1788113725 | 33.89° C | 53% | - | 0 mm | - | - | - |
| 1788113125 | 32.78° C | 56% | - | 0 mm | - | - | - |
* Rain latest hour (hover to see other rain measurements)
** Current wind speed in m/s (hover to see current wind gust speed)